aviador You're here:

KHLR Decoded Metar

FORT HOOD in TX, USA
Report Time2017-08-22 02:58:00
UTC Time2017-08-22 03:29:23
Flight Rules vfr VFR
Wind120° at 04 kt
W.Decomp.*RWY 16: 2.8 kt HW 2.8 kt LCW
W.Rank120° ranks 8
Current wind is below 120° avg. (6.8)
Visibility9999 m
Phenomena:N/A
Clouds:N/A
Expected CloudBase > 4,000 ft AGL from Temp-Dew spread
CeilingNone
Temp29°C (ISA +16)
Dew Point19°C (55% RH)
Heat Index30.3°C
QNH1017 hPa
Density Alt2,904 ft
Elevation928 ft
Report Wrong Elevation
Raw Report
KHLR 220258Z AUTO 12004KT 10SM CLR 29/19 A3003 RMK AO2 SLP156
T02940192 53011=

Extra information for KHLR:More info

Metar Taf Metar & Taf Last 4 Metars F.Rules Stats Wind Profile Meteogram Temp Stats Airport Information Weather charts Add Link Nearby VenuesMetar ALERT Operation Metar Decoded Social comments

AIRNAV info for KHLR